sensor_id;sensor_type;location;lat;lon;timestamp;temperature;humidity
30336;DHT22;17142;47.990;7.846;2022-11-15T00:00:03;10.50;99.90
30336;DHT22;17142;47.990;7.846;2022-11-15T00:02:29;10.50;99.90
30336;DHT22;17142;47.990;7.846;2022-11-15T00:04:57;10.50;99.90
30336;DHT22;17142;47.990;7.846;2022-11-15T00:07:22;10.50;99.90
30336;DHT22;17142;47.990;7.846;2022-11-15T00:09:48;10.60;99.90
30336;DHT22;17142;47.990;7.846;2022-11-15T00:12:16;10.60;99.90
30336;DHT22;17142;47.990;7.846;2022-11-15T00:14:41;10.60;99.90
30336;DHT22;17142;47.990;7.846;2022-11-15T00:17:07;10.50;99.90
30336;DHT22;17142;47.990;7.846;2022-11-15T00:19:32;10.50;99.90
30336;DHT22;17142;47.990;7.846;2022-11-15T00:21:58;10.50;99.90
30336;DHT22;17142;47.990;7.846;2022-11-15T00:24:26;10.40;99.90
30336;DHT22;17142;47.990;7.846;2022-11-15T00:26:54;10.50;99.90
30336;DHT22;17142;47.990;7.846;2022-11-15T00:29:20;10.50;99.90
30336;DHT22;17142;47.990;7.846;2022-11-15T00:31:45;10.50;99.90
30336;DHT22;17142;47.990;7.846;2022-11-15T00:34:11;10.50;99.90
30336;DHT22;17142;47.990;7.846;2022-11-15T00:36:36;10.50;99.90
30336;DHT22;17142;47.990;7.846;2022-11-15T00:39:04;10.50;99.90
30336;DHT22;17142;47.990;7.846;2022-11-15T00:41:31;10.60;99.90
30336;DHT22;17142;47.990;7.846;2022-11-15T00:43:57;10.60;99.90
30336;DHT22;17142;47.990;7.846;2022-11-15T00:46:22;10.70;99.90
30336;DHT22;17142;47.990;7.846;2022-11-15T00:48:48;10.70;99.90
30336;DHT22;17142;47.990;7.846;2022-11-15T00:51:16;10.60;99.90
30336;DHT22;17142;47.990;7.846;2022-11-15T00:53:41;10.60;99.90
30336;DHT22;17142;47.990;7.846;2022-11-15T00:56:07;10.60;99.90
30336;DHT22;17142;47.990;7.846;2022-11-15T00:58:33;10.50;99.90
30336;DHT22;17142;47.990;7.846;2022-11-15T01:01:12;10.40;99.90
30336;DHT22;17142;47.990;7.846;2022-11-15T01:03:39;10.30;99.90
30336;DHT22;17142;47.990;7.846;2022-11-15T01:06:08;10.40;99.90
30336;DHT22;17142;47.990;7.846;2022-11-15T01:08:34;10.40;99.90
30336;DHT22;17142;47.990;7.846;2022-11-15T01:11:04;10.60;99.90
30336;DHT22;17142;47.990;7.846;2022-11-15T01:13:32;10.70;99.90
30336;DHT22;17142;47.990;7.846;2022-11-15T01:15:57;10.70;99.90
30336;DHT22;17142;47.990;7.846;2022-11-15T01:18:23;10.70;99.90
30336;DHT22;17142;47.990;7.846;2022-11-15T01:20:51;10.80;99.90
30336;DHT22;17142;47.990;7.846;2022-11-15T01:23:16;10.80;99.90
30336;DHT22;17142;47.990;7.846;2022-11-15T01:25:42;10.80;99.90
30336;DHT22;17142;47.990;7.846;2022-11-15T01:28:07;10.90;99.90
30336;DHT22;17142;47.990;7.846;2022-11-15T01:30:36;11.00;99.90
30336;DHT22;17142;47.990;7.846;2022-11-15T01:33:01;11.10;99.90
30336;DHT22;17142;47.990;7.846;2022-11-15T01:35:27;11.10;99.90
30336;DHT22;17142;47.990;7.846;2022-11-15T01:37:53;11.30;99.90
30336;DHT22;17142;47.990;7.846;2022-11-15T01:40:18;11.30;99.90
30336;DHT22;17142;47.990;7.846;2022-11-15T01:42:44;11.50;99.90
30336;DHT22;17142;47.990;7.846;2022-11-15T01:45:15;11.70;99.90
30336;DHT22;17142;47.990;7.846;2022-11-15T01:47:45;11.80;99.90
30336;DHT22;17142;47.990;7.846;2022-11-15T01:50:17;11.90;99.90
30336;DHT22;17142;47.990;7.846;2022-11-15T01:52:45;11.80;99.90
30336;DHT22;17142;47.990;7.846;2022-11-15T01:57:39;11.70;99.90
30336;DHT22;17142;47.990;7.846;2022-11-15T02:00:07;11.60;99.90
30336;DHT22;17142;47.990;7.846;2022-11-15T02:02:33;11.50;99.90
30336;DHT22;17142;47.990;7.846;2022-11-15T02:05:04;11.50;99.90
30336;DHT22;17142;47.990;7.846;2022-11-15T02:07:33;11.50;99.90
30336;DHT22;17142;47.990;7.846;2022-11-15T02:10:06;11.50;99.90
30336;DHT22;17142;47.990;7.846;2022-11-15T02:12:34;11.50;99.90
30336;DHT22;17142;47.990;7.846;2022-11-15T02:15:02;11.60;99.90
30336;DHT22;17142;47.990;7.846;2022-11-15T02:37:49;11.70;99.90
30336;DHT22;17142;47.990;7.846;2022-11-15T02:41:20;11.80;99.90
30336;DHT22;17142;47.990;7.846;2022-11-15T02:43:29;12.00;99.90
30336;DHT22;17142;47.990;7.846;2022-11-15T02:46:52;12.00;99.90
30336;DHT22;17142;47.990;7.846;2022-11-15T02:49:59;12.10;99.90
30336;DHT22;17142;47.990;7.846;2022-11-15T02:52:25;12.20;99.90
30336;DHT22;17142;47.990;7.846;2022-11-15T02:54:59;12.30;99.90
30336;DHT22;17142;47.990;7.846;2022-11-15T03:00:11;12.30;99.90
30336;DHT22;17142;47.990;7.846;2022-11-15T03:11:03;12.20;99.90
30336;DHT22;17142;47.990;7.846;2022-11-15T03:19:35;12.30;99.90
30336;DHT22;17142;47.990;7.846;2022-11-15T03:22:06;12.20;99.90
30336;DHT22;17142;47.990;7.846;2022-11-15T03:24:36;12.10;99.90
30336;DHT22;17142;47.990;7.846;2022-11-15T03:27:07;12.10;99.90
30336;DHT22;17142;47.990;7.846;2022-11-15T03:29:42;12.10;99.90
30336;DHT22;17142;47.990;7.846;2022-11-15T03:32:14;12.10;99.90
30336;DHT22;17142;47.990;7.846;2022-11-15T03:34:49;12.10;99.90
30336;DHT22;17142;47.990;7.846;2022-11-15T03:37:17;12.10;99.90
30336;DHT22;17142;47.990;7.846;2022-11-15T03:39:46;12.00;99.90
30336;DHT22;17142;47.990;7.846;2022-11-15T03:42:29;12.00;99.90
30336;DHT22;17142;47.990;7.846;2022-11-15T03:45:17;12.00;99.90
30336;DHT22;17142;47.990;7.846;2022-11-15T03:50:40;11.90;99.90
30336;DHT22;17142;47.990;7.846;2022-11-15T03:53:07;11.90;99.90
30336;DHT22;17142;47.990;7.846;2022-11-15T03:55:33;11.90;99.90
30336;DHT22;17142;47.990;7.846;2022-11-15T03:58:00;11.90;99.90
30336;DHT22;17142;47.990;7.846;2022-11-15T04:00:27;11.90;99.90
30336;DHT22;17142;47.990;7.846;2022-11-15T04:02:53;11.80;99.90
30336;DHT22;17142;47.990;7.846;2022-11-15T04:05:21;11.80;99.90
30336;DHT22;17142;47.990;7.846;2022-11-15T04:07:49;11.70;99.90
30336;DHT22;17142;47.990;7.846;2022-11-15T04:10:16;11.70;99.90
30336;DHT22;17142;47.990;7.846;2022-11-15T04:12:46;11.60;99.90
30336;DHT22;17142;47.990;7.846;2022-11-15T04:15:18;11.60;99.90
30336;DHT22;17142;47.990;7.846;2022-11-15T04:17:49;11.50;99.90
30336;DHT22;17142;47.990;7.846;2022-11-15T04:23:01;11.50;99.90
30336;DHT22;17142;47.990;7.846;2022-11-15T04:25:46;11.40;99.90
30336;DHT22;17142;47.990;7.846;2022-11-15T04:28:16;11.40;99.90
30336;DHT22;17142;47.990;7.846;2022-11-15T04:30:45;11.40;99.90
30336;DHT22;17142;47.990;7.846;2022-11-15T04:33:13;11.40;99.90
30336;DHT22;17142;47.990;7.846;2022-11-15T04:35:38;11.30;99.90
30336;DHT22;17142;47.990;7.846;2022-11-15T04:38:06;11.30;99.90
30336;DHT22;17142;47.990;7.846;2022-11-15T04:40:32;11.20;99.90
30336;DHT22;17142;47.990;7.846;2022-11-15T04:43:01;11.10;99.90
30336;DHT22;17142;47.990;7.846;2022-11-15T04:45:29;11.00;99.90
30336;DHT22;17142;47.990;7.846;2022-11-15T04:47:54;10.90;99.90
30336;DHT22;17142;47.990;7.846;2022-11-15T04:50:20;10.80;99.90
30336;DHT22;17142;47.990;7.846;2022-11-15T04:52:53;10.80;99.90
30336;DHT22;17142;47.990;7.846;2022-11-15T04:55:19;10.70;99.90
30336;DHT22;17142;47.990;7.846;2022-11-15T04:57:45;10.60;99.90
30336;DHT22;17142;47.990;7.846;2022-11-15T05:00:15;10.60;99.90
30336;DHT22;17142;47.990;7.846;2022-11-15T05:02:41;10.50;99.90
30336;DHT22;17142;47.990;7.846;2022-11-15T05:05:30;10.50;99.90
30336;DHT22;17142;47.990;7.846;2022-11-15T05:07:55;10.50;99.90
30336;DHT22;17142;47.990;7.846;2022-11-15T05:10:21;10.40;99.90
30336;DHT22;17142;47.990;7.846;2022-11-15T05:12:49;10.40;99.90
30336;DHT22;17142;47.990;7.846;2022-11-15T05:15:15;10.30;99.90
30336;DHT22;17142;47.990;7.846;2022-11-15T05:17:43;10.30;99.90
30336;DHT22;17142;47.990;7.846;2022-11-15T05:20:09;10.20;99.90
30336;DHT22;17142;47.990;7.846;2022-11-15T05:22:38;10.20;99.90
30336;DHT22;17142;47.990;7.846;2022-11-15T05:25:07;10.10;99.90
30336;DHT22;17142;47.990;7.846;2022-11-15T05:27:33;10.10;99.90
30336;DHT22;17142;47.990;7.846;2022-11-15T05:29:59;10.10;99.90
30336;DHT22;17142;47.990;7.846;2022-11-15T05:32:27;10.10;99.90
30336;DHT22;17142;47.990;7.846;2022-11-15T05:34:54;10.10;99.90
30336;DHT22;17142;47.990;7.846;2022-11-15T05:37:20;10.00;99.90
30336;DHT22;17142;47.990;7.846;2022-11-15T05:39:45;10.00;99.90
30336;DHT22;17142;47.990;7.846;2022-11-15T05:42:13;10.00;99.90
30336;DHT22;17142;47.990;7.846;2022-11-15T05:44:41;10.00;99.90
30336;DHT22;17142;47.990;7.846;2022-11-15T05:47:10;9.90;99.90
30336;DHT22;17142;47.990;7.846;2022-11-15T05:49:38;9.90;99.90
30336;DHT22;17142;47.990;7.846;2022-11-15T05:52:09;9.80;99.90
30336;DHT22;17142;47.990;7.846;2022-11-15T05:54:39;9.80;99.90
30336;DHT22;17142;47.990;7.846;2022-11-15T05:57:06;9.80;99.90
30336;DHT22;17142;47.990;7.846;2022-11-15T05:59:32;9.80;99.90
30336;DHT22;17142;47.990;7.846;2022-11-15T06:02:01;9.80;99.90
30336;DHT22;17142;47.990;7.846;2022-11-15T06:04:27;9.70;99.90
30336;DHT22;17142;47.990;7.846;2022-11-15T06:06:55;9.70;99.90
30336;DHT22;17142;47.990;7.846;2022-11-15T06:09:20;9.70;99.90
30336;DHT22;17142;47.990;7.846;2022-11-15T06:11:48;9.70;99.90
30336;DHT22;17142;47.990;7.846;2022-11-15T06:14:14;9.70;99.90
30336;DHT22;17142;47.990;7.846;2022-11-15T06:16:43;9.60;99.90
30336;DHT22;17142;47.990;7.846;2022-11-15T06:19:11;9.70;99.90
30336;DHT22;17142;47.990;7.846;2022-11-15T06:21:36;9.70;99.90
30336;DHT22;17142;47.990;7.846;2022-11-15T06:24:02;9.60;99.90
30336;DHT22;17142;47.990;7.846;2022-11-15T06:26:28;9.70;99.90
30336;DHT22;17142;47.990;7.846;2022-11-15T06:28:53;9.60;99.90
30336;DHT22;17142;47.990;7.846;2022-11-15T06:31:19;9.60;99.90
30336;DHT22;17142;47.990;7.846;2022-11-15T06:33:46;9.70;99.90
30336;DHT22;17142;47.990;7.846;2022-11-15T06:36:14;9.70;99.90
30336;DHT22;17142;47.990;7.846;2022-11-15T06:38:42;9.70;99.90
30336;DHT22;17142;47.990;7.846;2022-11-15T06:41:09;9.70;99.90
30336;DHT22;17142;47.990;7.846;2022-11-15T06:43:36;9.70;99.90
30336;DHT22;17142;47.990;7.846;2022-11-15T06:46:05;9.70;99.90
30336;DHT22;17142;47.990;7.846;2022-11-15T06:48:31;9.80;99.90
30336;DHT22;17142;47.990;7.846;2022-11-15T06:50:59;9.80;99.90
30336;DHT22;17142;47.990;7.846;2022-11-15T06:53:25;9.90;99.90
30336;DHT22;17142;47.990;7.846;2022-11-15T06:55:53;9.90;99.90
30336;DHT22;17142;47.990;7.846;2022-11-15T06:58:25;9.90;99.90
30336;DHT22;17142;47.990;7.846;2022-11-15T07:00:51;10.00;99.90
30336;DHT22;17142;47.990;7.846;2022-11-15T07:03:17;10.00;99.90
30336;DHT22;17142;47.990;7.846;2022-11-15T07:05:49;10.00;99.90
30336;DHT22;17142;47.990;7.846;2022-11-15T07:08:15;10.10;99.90
30336;DHT22;17142;47.990;7.846;2022-11-15T07:10:40;10.10;99.90
30336;DHT22;17142;47.990;7.846;2022-11-15T07:13:06;10.20;99.90
30336;DHT22;17142;47.990;7.846;2022-11-15T07:15:32;10.20;99.90
30336;DHT22;17142;47.990;7.846;2022-11-15T07:18:01;10.30;99.90
30336;DHT22;17142;47.990;7.846;2022-11-15T07:20:26;10.30;99.90
30336;DHT22;17142;47.990;7.846;2022-11-15T07:22:59;10.40;99.90
30336;DHT22;17142;47.990;7.846;2022-11-15T07:25:28;10.40;99.90
30336;DHT22;17142;47.990;7.846;2022-11-15T07:28:02;10.40;99.90
30336;DHT22;17142;47.990;7.846;2022-11-15T07:30:30;10.50;99.90
30336;DHT22;17142;47.990;7.846;2022-11-15T07:33:00;10.50;99.90
30336;DHT22;17142;47.990;7.846;2022-11-15T07:35:28;10.60;99.90
30336;DHT22;17142;47.990;7.846;2022-11-15T07:37:58;10.60;99.90
30336;DHT22;17142;47.990;7.846;2022-11-15T07:40:25;10.60;99.90
30336;DHT22;17142;47.990;7.846;2022-11-15T07:42:50;10.70;99.90
30336;DHT22;17142;47.990;7.846;2022-11-15T07:45:20;10.70;99.90
30336;DHT22;17142;47.990;7.846;2022-11-15T07:47:47;10.80;99.90
30336;DHT22;17142;47.990;7.846;2022-11-15T07:50:15;10.80;99.90
30336;DHT22;17142;47.990;7.846;2022-11-15T07:52:44;10.80;99.90
30336;DHT22;17142;47.990;7.846;2022-11-15T07:55:10;10.80;99.90
30336;DHT22;17142;47.990;7.846;2022-11-15T07:57:36;10.80;99.90
30336;DHT22;17142;47.990;7.846;2022-11-15T08:00:03;10.90;99.90
30336;DHT22;17142;47.990;7.846;2022-11-15T08:02:28;11.00;99.90
30336;DHT22;17142;47.990;7.846;2022-11-15T08:04:56;11.00;99.90
30336;DHT22;17142;47.990;7.846;2022-11-15T08:07:22;11.10;99.90
30336;DHT22;17142;47.990;7.846;2022-11-15T08:09:50;11.20;99.90
30336;DHT22;17142;47.990;7.846;2022-11-15T08:12:15;11.20;99.90
30336;DHT22;17142;47.990;7.846;2022-11-15T08:14:41;11.20;99.90
30336;DHT22;17142;47.990;7.846;2022-11-15T08:17:11;11.20;99.90
30336;DHT22;17142;47.990;7.846;2022-11-15T08:19:37;11.30;99.90
30336;DHT22;17142;47.990;7.846;2022-11-15T08:22:05;11.30;99.90
30336;DHT22;17142;47.990;7.846;2022-11-15T08:24:30;11.40;99.90
30336;DHT22;17142;47.990;7.846;2022-11-15T08:26:56;11.40;99.90
30336;DHT22;17142;47.990;7.846;2022-11-15T08:29:22;11.50;99.90
30336;DHT22;17142;47.990;7.846;2022-11-15T08:31:47;11.50;99.90
30336;DHT22;17142;47.990;7.846;2022-11-15T08:34:13;11.50;99.90
30336;DHT22;17142;47.990;7.846;2022-11-15T08:36:38;11.50;99.90
30336;DHT22;17142;47.990;7.846;2022-11-15T08:39:04;11.50;99.90
30336;DHT22;17142;47.990;7.846;2022-11-15T08:41:32;11.50;99.90
30336;DHT22;17142;47.990;7.846;2022-11-15T08:44:01;11.60;99.90
30336;DHT22;17142;47.990;7.846;2022-11-15T08:46:26;11.60;99.90
30336;DHT22;17142;47.990;7.846;2022-11-15T08:48:52;11.60;99.90
30336;DHT22;17142;47.990;7.846;2022-11-15T08:51:18;11.60;99.90
30336;DHT22;17142;47.990;7.846;2022-11-15T08:53:43;11.70;99.90
30336;DHT22;17142;47.990;7.846;2022-11-15T08:56:11;11.70;99.90
30336;DHT22;17142;47.990;7.846;2022-11-15T08:58:38;11.80;99.90
30336;DHT22;17142;47.990;7.846;2022-11-15T09:01:04;11.70;99.90
30336;DHT22;17142;47.990;7.846;2022-11-15T09:03:30;11.80;99.90
30336;DHT22;17142;47.990;7.846;2022-11-15T09:05:57;11.80;99.90
30336;DHT22;17142;47.990;7.846;2022-11-15T09:08:23;11.80;99.90
30336;DHT22;17142;47.990;7.846;2022-11-15T09:10:49;11.80;99.90
30336;DHT22;17142;47.990;7.846;2022-11-15T09:13:20;11.90;99.90
30336;DHT22;17142;47.990;7.846;2022-11-15T09:15:50;11.90;99.90
30336;DHT22;17142;47.990;7.846;2022-11-15T09:18:15;12.00;99.90
30336;DHT22;17142;47.990;7.846;2022-11-15T09:20:44;12.00;99.90
30336;DHT22;17142;47.990;7.846;2022-11-15T09:23:14;12.10;99.90
30336;DHT22;17142;47.990;7.846;2022-11-15T09:25:40;12.20;99.90
30336;DHT22;17142;47.990;7.846;2022-11-15T09:28:07;12.30;99.90
30336;DHT22;17142;47.990;7.846;2022-11-15T09:30:35;12.30;99.90
30336;DHT22;17142;47.990;7.846;2022-11-15T09:33:09;12.40;99.90
30336;DHT22;17142;47.990;7.846;2022-11-15T09:35:38;12.40;99.90
30336;DHT22;17142;47.990;7.846;2022-11-15T09:38:06;12.30;99.90
30336;DHT22;17142;47.990;7.846;2022-11-15T09:40:32;12.30;99.90
30336;DHT22;17142;47.990;7.846;2022-11-15T09:43:31;12.30;99.90
30336;DHT22;17142;47.990;7.846;2022-11-15T09:49:06;12.30;99.90
30336;DHT22;17142;47.990;7.846;2022-11-15T09:51:37;12.30;99.90
30336;DHT22;17142;47.990;7.846;2022-11-15T09:57:02;12.60;99.90
30336;DHT22;17142;47.990;7.846;2022-11-15T09:59:55;12.80;99.90
30336;DHT22;17142;47.990;7.846;2022-11-15T10:05:22;13.10;99.90
30336;DHT22;17142;47.990;7.846;2022-11-15T10:11:04;13.20;99.90
30336;DHT22;17142;47.990;7.846;2022-11-15T10:13:34;13.30;99.90
30336;DHT22;17142;47.990;7.846;2022-11-15T10:19:09;13.40;99.90
30336;DHT22;17142;47.990;7.846;2022-11-15T10:24:12;13.50;99.90
30336;DHT22;17142;47.990;7.846;2022-11-15T10:26:49;13.50;99.90
30336;DHT22;17142;47.990;7.846;2022-11-15T10:29:19;13.50;99.90
30336;DHT22;17142;47.990;7.846;2022-11-15T10:31:45;13.50;99.90
30336;DHT22;17142;47.990;7.846;2022-11-15T10:34:18;13.40;99.90
30336;DHT22;17142;47.990;7.846;2022-11-15T10:36:45;13.30;99.90
30336;DHT22;17142;47.990;7.846;2022-11-15T10:39:13;13.20;99.90
30336;DHT22;17142;47.990;7.846;2022-11-15T10:41:40;13.20;99.90
30336;DHT22;17142;47.990;7.846;2022-11-15T10:46:34;13.20;99.90
30336;DHT22;17142;47.990;7.846;2022-11-15T10:51:49;13.30;99.90
30336;DHT22;17142;47.990;7.846;2022-11-15T10:57:16;13.50;99.90
30336;DHT22;17142;47.990;7.846;2022-11-15T10:59:53;13.60;99.90
30336;DHT22;17142;47.990;7.846;2022-11-15T11:02:37;13.60;99.90
30336;DHT22;17142;47.990;7.846;2022-11-15T11:08:00;13.60;99.90
30336;DHT22;17142;47.990;7.846;2022-11-15T11:10:27;13.60;99.90
30336;DHT22;17142;47.990;7.846;2022-11-15T11:12:53;13.70;99.90
30336;DHT22;17142;47.990;7.846;2022-11-15T11:15:19;13.70;99.90
30336;DHT22;17142;47.990;7.846;2022-11-15T11:17:57;13.80;99.90
30336;DHT22;17142;47.990;7.846;2022-11-15T11:20:38;13.80;99.90
30336;DHT22;17142;47.990;7.846;2022-11-15T11:26:18;13.80;99.90
30336;DHT22;17142;47.990;7.846;2022-11-15T11:29:12;13.90;99.90
30336;DHT22;17142;47.990;7.846;2022-11-15T11:37:09;14.20;99.90
30336;DHT22;17142;47.990;7.846;2022-11-15T11:47:40;14.70;99.90
30336;DHT22;17142;47.990;7.846;2022-11-15T11:50:19;14.70;99.90
30336;DHT22;17142;47.990;7.846;2022-11-15T11:55:28;14.90;99.90
30336;DHT22;17142;47.990;7.846;2022-11-15T11:58:12;15.00;99.90
30336;DHT22;17142;47.990;7.846;2022-11-15T12:00:42;15.10;99.90
30336;DHT22;17142;47.990;7.846;2022-11-15T12:03:34;15.20;99.90
30336;DHT22;17142;47.990;7.846;2022-11-15T12:06:37;15.30;99.90
30336;DHT22;17142;47.990;7.846;2022-11-15T12:09:27;15.30;99.90
30336;DHT22;17142;47.990;7.846;2022-11-15T12:12:15;15.30;99.90
30336;DHT22;17142;47.990;7.846;2022-11-15T12:15:09;15.30;99.90
30336;DHT22;17142;47.990;7.846;2022-11-15T12:17:38;15.20;99.90
30336;DHT22;17142;47.990;7.846;2022-11-15T12:25:40;15.10;99.90
30336;DHT22;17142;47.990;7.846;2022-11-15T12:31:03;15.10;99.90
30336;DHT22;17142;47.990;7.846;2022-11-15T12:33:45;15.10;99.90
30336;DHT22;17142;47.990;7.846;2022-11-15T12:41:19;15.10;99.90
30336;DHT22;17142;47.990;7.846;2022-11-15T12:43:46;15.10;99.90
30336;DHT22;17142;47.990;7.846;2022-11-15T12:46:21;15.10;99.90
30336;DHT22;17142;47.990;7.846;2022-11-15T12:51:22;15.10;99.90
30336;DHT22;17142;47.990;7.846;2022-11-15T12:53:48;15.10;99.90
30336;DHT22;17142;47.990;7.846;2022-11-15T13:01:08;15.00;99.90
30336;DHT22;17142;47.990;7.846;2022-11-15T13:03:35;14.90;99.90
30336;DHT22;17142;47.990;7.846;2022-11-15T13:06:04;14.80;99.90
30336;DHT22;17142;47.990;7.846;2022-11-15T13:08:45;14.80;99.90
30336;DHT22;17142;47.990;7.846;2022-11-15T13:11:50;14.70;99.90
30336;DHT22;17142;47.990;7.846;2022-11-15T13:14:38;14.70;99.90
30336;DHT22;17142;47.990;7.846;2022-11-15T13:19:54;14.60;99.90
30336;DHT22;17142;47.990;7.846;2022-11-15T13:22:21;14.50;99.90
30336;DHT22;17142;47.990;7.846;2022-11-15T13:28:00;14.40;99.90
30336;DHT22;17142;47.990;7.846;2022-11-15T13:30:29;14.40;99.90
30336;DHT22;17142;47.990;7.846;2022-11-15T13:32:56;14.40;99.90
30336;DHT22;17142;47.990;7.846;2022-11-15T13:35:28;14.40;99.90
30336;DHT22;17142;47.990;7.846;2022-11-15T13:37:57;14.30;99.90
30336;DHT22;17142;47.990;7.846;2022-11-15T13:40:34;14.30;99.90
30336;DHT22;17142;47.990;7.846;2022-11-15T13:42:59;14.20;99.90
30336;DHT22;17142;47.990;7.846;2022-11-15T13:45:40;14.20;99.90
30336;DHT22;17142;47.990;7.846;2022-11-15T13:48:09;14.10;99.90
30336;DHT22;17142;47.990;7.846;2022-11-15T13:50:37;14.10;99.90
30336;DHT22;17142;47.990;7.846;2022-11-15T13:53:06;14.10;99.90
30336;DHT22;17142;47.990;7.846;2022-11-15T13:55:32;14.10;99.90
30336;DHT22;17142;47.990;7.846;2022-11-15T13:58:00;14.10;99.90
30336;DHT22;17142;47.990;7.846;2022-11-15T14:00:43;14.10;99.90
30336;DHT22;17142;47.990;7.846;2022-11-15T14:03:17;14.10;99.90
30336;DHT22;17142;47.990;7.846;2022-11-15T14:06:06;14.00;99.90
30336;DHT22;17142;47.990;7.846;2022-11-15T14:08:41;14.00;99.90
30336;DHT22;17142;47.990;7.846;2022-11-15T14:11:19;14.00;99.90
30336;DHT22;17142;47.990;7.846;2022-11-15T14:16:45;14.10;99.90
30336;DHT22;17142;47.990;7.846;2022-11-15T14:19:32;14.10;99.90
30336;DHT22;17142;47.990;7.846;2022-11-15T14:24:37;14.30;99.90
30336;DHT22;17142;47.990;7.846;2022-11-15T14:29:50;14.30;99.90
30336;DHT22;17142;47.990;7.846;2022-11-15T14:34:43;14.30;99.90
30336;DHT22;17142;47.990;7.846;2022-11-15T14:37:32;14.30;99.90
30336;DHT22;17142;47.990;7.846;2022-11-15T14:40:00;14.30;99.90
30336;DHT22;17142;47.990;7.846;2022-11-15T14:42:26;14.30;99.90
30336;DHT22;17142;47.990;7.846;2022-11-15T14:44:55;14.30;99.90
30336;DHT22;17142;47.990;7.846;2022-11-15T14:47:20;14.20;99.90
30336;DHT22;17142;47.990;7.846;2022-11-15T14:49:46;14.20;99.90
30336;DHT22;17142;47.990;7.846;2022-11-15T14:54:50;14.10;99.90
30336;DHT22;17142;47.990;7.846;2022-11-15T14:57:16;14.10;99.90
30336;DHT22;17142;47.990;7.846;2022-11-15T14:59:41;14.00;99.90
30336;DHT22;17142;47.990;7.846;2022-11-15T15:02:25;14.00;99.90
30336;DHT22;17142;47.990;7.846;2022-11-15T15:04:54;13.90;99.90
30336;DHT22;17142;47.990;7.846;2022-11-15T15:07:27;13.90;99.90
30336;DHT22;17142;47.990;7.846;2022-11-15T15:09:55;13.90;99.90
30336;DHT22;17142;47.990;7.846;2022-11-15T15:12:22;13.80;99.90
30336;DHT22;17142;47.990;7.846;2022-11-15T15:14:49;13.80;99.90
30336;DHT22;17142;47.990;7.846;2022-11-15T15:17:16;13.80;99.90
30336;DHT22;17142;47.990;7.846;2022-11-15T15:19:42;13.80;99.90
30336;DHT22;17142;47.990;7.846;2022-11-15T15:22:18;13.80;99.90
30336;DHT22;17142;47.990;7.846;2022-11-15T15:24:45;13.70;99.90
30336;DHT22;17142;47.990;7.846;2022-11-15T15:27:13;13.70;99.90
30336;DHT22;17142;47.990;7.846;2022-11-15T15:29:39;13.70;99.90
30336;DHT22;17142;47.990;7.846;2022-11-15T15:32:05;13.60;99.90
30336;DHT22;17142;47.990;7.846;2022-11-15T15:34:33;13.50;99.90
30336;DHT22;17142;47.990;7.846;2022-11-15T15:39:46;13.40;99.90
30336;DHT22;17142;47.990;7.846;2022-11-15T15:42:12;13.40;99.90
30336;DHT22;17142;47.990;7.846;2022-11-15T15:44:37;13.30;99.90
30336;DHT22;17142;47.990;7.846;2022-11-15T15:47:15;13.20;99.90
30336;DHT22;17142;47.990;7.846;2022-11-15T15:49:42;13.10;99.90
30336;DHT22;17142;47.990;7.846;2022-11-15T15:52:10;12.90;99.90
30336;DHT22;17142;47.990;7.846;2022-11-15T15:54:38;12.80;99.90
30336;DHT22;17142;47.990;7.846;2022-11-15T15:57:07;12.70;99.90
30336;DHT22;17142;47.990;7.846;2022-11-15T15:59:33;12.70;99.90
30336;DHT22;17142;47.990;7.846;2022-11-15T16:01:59;12.60;99.90
30336;DHT22;17142;47.990;7.846;2022-11-15T16:04:27;12.50;99.90
30336;DHT22;17142;47.990;7.846;2022-11-15T16:06:58;12.50;99.90
30336;DHT22;17142;47.990;7.846;2022-11-15T16:09:26;12.40;99.90
30336;DHT22;17142;47.990;7.846;2022-11-15T16:12:11;12.40;99.90
30336;DHT22;17142;47.990;7.846;2022-11-15T16:14:36;12.30;99.90
30336;DHT22;17142;47.990;7.846;2022-11-15T16:17:02;12.20;99.90
30336;DHT22;17142;47.990;7.846;2022-11-15T16:19:31;12.10;99.90
30336;DHT22;17142;47.990;7.846;2022-11-15T16:21:58;12.10;99.90
30336;DHT22;17142;47.990;7.846;2022-11-15T16:24:26;12.10;99.90
30336;DHT22;17142;47.990;7.846;2022-11-15T16:26:52;12.10;99.90
30336;DHT22;17142;47.990;7.846;2022-11-15T16:29:18;12.10;99.90
30336;DHT22;17142;47.990;7.846;2022-11-15T16:31:43;12.00;99.90
30336;DHT22;17142;47.990;7.846;2022-11-15T16:34:11;12.00;99.90
30336;DHT22;17142;47.990;7.846;2022-11-15T16:36:37;12.00;99.90
30336;DHT22;17142;47.990;7.846;2022-11-15T16:39:03;11.90;99.90
30336;DHT22;17142;47.990;7.846;2022-11-15T16:41:33;11.90;99.90
30336;DHT22;17142;47.990;7.846;2022-11-15T16:44:01;11.90;99.90
30336;DHT22;17142;47.990;7.846;2022-11-15T16:46:27;11.90;99.90
30336;DHT22;17142;47.990;7.846;2022-11-15T16:48:54;11.90;99.90
30336;DHT22;17142;47.990;7.846;2022-11-15T16:51:20;11.80;99.90
30336;DHT22;17142;47.990;7.846;2022-11-15T16:53:46;11.80;99.90
30336;DHT22;17142;47.990;7.846;2022-11-15T16:56:27;11.80;99.90
30336;DHT22;17142;47.990;7.846;2022-11-15T16:58:54;11.80;99.90
30336;DHT22;17142;47.990;7.846;2022-11-15T17:01:25;11.70;99.90
30336;DHT22;17142;47.990;7.846;2022-11-15T17:03:51;11.70;99.90
30336;DHT22;17142;47.990;7.846;2022-11-15T17:06:17;11.70;99.90
30336;DHT22;17142;47.990;7.846;2022-11-15T17:08:44;11.70;99.90
30336;DHT22;17142;47.990;7.846;2022-11-15T17:11:17;11.60;99.90
30336;DHT22;17142;47.990;7.846;2022-11-15T17:13:50;11.60;99.90
30336;DHT22;17142;47.990;7.846;2022-11-15T17:16:16;11.50;99.90
30336;DHT22;17142;47.990;7.846;2022-11-15T17:18:43;11.50;99.90
30336;DHT22;17142;47.990;7.846;2022-11-15T17:21:16;11.50;99.90
30336;DHT22;17142;47.990;7.846;2022-11-15T17:23:43;11.40;99.90
30336;DHT22;17142;47.990;7.846;2022-11-15T17:26:10;11.40;99.90
30336;DHT22;17142;47.990;7.846;2022-11-15T17:28:37;11.40;99.90
30336;DHT22;17142;47.990;7.846;2022-11-15T17:31:08;11.40;99.90
30336;DHT22;17142;47.990;7.846;2022-11-15T17:33:35;11.30;99.90
30336;DHT22;17142;47.990;7.846;2022-11-15T17:36:04;11.30;99.90
30336;DHT22;17142;47.990;7.846;2022-11-15T17:38:30;11.30;99.90
30336;DHT22;17142;47.990;7.846;2022-11-15T17:41:08;11.30;99.90
30336;DHT22;17142;47.990;7.846;2022-11-15T17:43:37;11.30;99.90
30336;DHT22;17142;47.990;7.846;2022-11-15T17:46:08;11.30;99.90
30336;DHT22;17142;47.990;7.846;2022-11-15T17:48:34;11.30;99.90
30336;DHT22;17142;47.990;7.846;2022-11-15T17:51:02;11.20;99.90
30336;DHT22;17142;47.990;7.846;2022-11-15T17:53:33;11.20;99.90
30336;DHT22;17142;47.990;7.846;2022-11-15T17:56:05;11.20;99.90
30336;DHT22;17142;47.990;7.846;2022-11-15T17:58:35;11.20;99.90
30336;DHT22;17142;47.990;7.846;2022-11-15T18:01:17;11.20;99.90
30336;DHT22;17142;47.990;7.846;2022-11-15T18:03:43;11.20;99.90